Aérodrome :
LOGIN :

S'inscrire | Disclaimer

   EN    FR    IT 

 










Légende :    VFR   VFR Marginal   IFR   IFR Intensif   IFR Très Intensif
Visi : 
Plafond : 
>= 8 km
>= 3000ft
5 à 8 km
1000 à 3000 ft
1500m à 5 km
500 à 1000 ft
800 à 1500m
200 à 500 ft
< 800m
< 200 ft
Symboles :   Orages  Brouillard  Fortes neiges  Fortes précipitations  Vent > 20 kt
SIGMETs :   Divers  Orages  Givrage  Turbulence  Onde Orograph.  Cendres Volcan.







- Altitude de l'aérodrome : 12 ft
- Code IATA : BCN


LEBL - Barcelone

DERNIER METAR :
  • 251730Z 13004KT 080V200 CAVOK 24/17 Q1016 NOSIG

METARs EXPIRÉS :
  • 251700Z 14005KT 110V200 CAVOK 24/18 Q1016 NOSIG
  • 251630Z 14006KT 110V180 CAVOK 25/17 Q1016 NOSIG
  • 251600Z 14007KT 110V170 CAVOK 25/17 Q1016 NOSIG
  • 251530Z 13007KT 100V170 CAVOK 24/17 Q1016 NOSIG
  • 251500Z 14007KT 100V190 CAVOK 25/16 Q1016 NOSIG

TAF TAF LEBL
Valide du 25 à 18h jusqu'au 26 à 18h UTC


251700Z 2518/2618 15008KT 9999 FEW030 TX28/2612Z TN22/2606Z
BECMG 2518/2520 VRB04KT
TEMPO 2600/2607 32008KT
BECMG 2610/2613 18008KT
Pas de NOTAMs connus pour ce terrain.



MET'MAP, la Météo Aéronautique d'un coup d'oeil ! - Copyright ORBIFLY Décembre 2007 - Disclaimer

ORBIFLY MET'MAP TEAM :

Programmation & Développement : Alexandra Zaïnal
Conception & Développement : Baudouin d'Aumeries
Co-Programmation & Développement : Marc-Olivier Méhu
Soutien technique & logistique : Manuel Goepfert

Contact : metmap@orbifly.com




SOURCES & CREDITS :

   NOAA